createdAt,value
2018-04-18T00:00:59.208Z,12.50
2018-04-18T00:03:26.681Z,12.50
2018-04-18T00:05:54.118Z,12.40
2018-04-18T00:08:21.579Z,12.40
2018-04-18T00:10:49.824Z,12.40
2018-04-18T00:13:17.293Z,12.40
2018-04-18T00:15:44.751Z,12.40
2018-04-18T00:18:12.214Z,12.30
2018-04-18T00:20:40.433Z,12.10
2018-04-18T00:23:08.643Z,12.10
2018-04-18T00:25:36.105Z,12.10
2018-04-18T00:28:03.572Z,12.10
2018-04-18T00:30:31.029Z,12.10
2018-04-18T00:32:58.513Z,12.10
2018-04-18T00:35:26.728Z,11.80
2018-04-18T00:37:54.188Z,11.80
2018-04-18T00:40:21.658Z,11.80
2018-04-18T00:42:49.894Z,11.90
2018-04-18T00:45:17.352Z,11.80
2018-04-18T00:50:20.312Z,11.90
2018-04-18T00:52:47.769Z,11.90
2018-04-18T00:55:15.234Z,12.00
2018-04-18T00:57:42.691Z,11.90
2018-04-18T01:00:10.143Z,11.90
2018-04-18T01:02:37.603Z,11.80
2018-04-18T01:05:05.057Z,11.80
2018-04-18T01:07:32.516Z,11.80
2018-04-18T01:10:00.008Z,11.80
2018-04-18T01:12:27.463Z,11.70
2018-04-18T01:14:54.918Z,11.70
2018-04-18T01:17:22.359Z,11.70
2018-04-18T01:19:49.834Z,11.60
2018-04-18T01:22:17.275Z,11.60
2018-04-18T01:24:44.734Z,11.60
2018-04-18T01:27:12.182Z,11.50
2018-04-18T01:29:39.662Z,11.40
2018-04-18T01:32:07.094Z,11.30
2018-04-18T01:34:34.562Z,11.30
2018-04-18T01:37:02.017Z,11.20
2018-04-18T01:39:30.246Z,11.10
2018-04-18T01:41:57.699Z,11.10
2018-04-18T01:44:25.187Z,11.10
2018-04-18T01:46:52.653Z,11.20
2018-04-18T01:49:36.810Z,11.20
2018-04-18T01:52:04.253Z,11.20
2018-04-18T01:54:31.722Z,11.20
2018-04-18T01:56:59.231Z,11.10
2018-04-18T01:59:26.720Z,11.10
2018-04-18T02:01:54.953Z,11.10
2018-04-18T02:04:22.397Z,11.10
2018-04-18T02:06:49.874Z,11.10
2018-04-18T02:09:17.335Z,11.10
2018-04-18T02:11:44.778Z,11.00
2018-04-18T02:14:12.244Z,11.00
2018-04-18T02:16:39.708Z,11.00
2018-04-18T02:19:07.171Z,10.90
2018-04-18T02:21:34.620Z,10.90
2018-04-18T02:24:02.858Z,10.80
2018-04-18T02:26:30.314Z,10.80
2018-04-18T02:28:57.804Z,10.80
2018-04-18T02:31:25.241Z,10.70
2018-04-18T02:33:52.717Z,10.70
2018-04-18T02:36:20.173Z,10.60
2018-04-18T02:38:48.404Z,10.60
2018-04-18T02:41:15.875Z,10.60
2018-04-18T02:43:43.342Z,10.50
2018-04-18T02:46:10.818Z,10.50
2018-04-18T02:48:38.287Z,10.40
2018-04-18T02:51:05.746Z,10.40
2018-04-18T02:53:33.194Z,10.40
2018-04-18T02:56:01.423Z,10.40
2018-04-18T02:58:28.890Z,10.40
2018-04-18T03:00:57.116Z,10.30
2018-04-18T03:03:24.566Z,10.30
2018-04-18T03:05:52.037Z,10.40
2018-04-18T03:08:20.262Z,10.40
2018-04-18T03:10:47.743Z,10.40
2018-04-18T03:13:15.999Z,10.50
2018-04-18T03:15:44.215Z,10.60
2018-04-18T03:18:11.675Z,10.50
2018-04-18T03:20:39.128Z,10.50
2018-04-18T03:23:06.580Z,10.40
2018-04-18T03:25:34.041Z,10.50
2018-04-18T03:28:01.495Z,10.50
2018-04-18T03:30:28.957Z,10.60
2018-04-18T03:32:56.415Z,10.60
2018-04-18T03:35:23.874Z,10.60
2018-04-18T03:37:51.322Z,10.60
2018-04-18T03:40:18.779Z,10.50
2018-04-18T03:42:46.247Z,10.40
2018-04-18T03:45:13.702Z,10.40
2018-04-18T03:47:41.163Z,10.30
2018-04-18T03:50:08.623Z,10.20
2018-04-18T03:52:36.852Z,10.20
2018-04-18T03:55:04.339Z,10.20
2018-04-18T03:57:31.800Z,10.20
2018-04-18T03:59:59.863Z,10.20
2018-04-18T04:02:28.125Z,10.20
2018-04-18T04:04:56.348Z,10.20
2018-04-18T04:07:24.571Z,10.20
2018-04-18T04:09:52.041Z,10.20
2018-04-18T04:12:19.506Z,10.20
2018-04-18T04:14:47.034Z,10.20
2018-04-18T04:17:26.215Z,10.20
2018-04-18T04:20:05.563Z,10.20
2018-04-18T04:22:44.873Z,10.20
2018-04-18T04:25:12.325Z,10.10
2018-04-18T04:27:39.773Z,10.10
2018-04-18T04:30:07.242Z,10.10
2018-04-18T04:32:34.894Z,10.10
2018-04-18T04:35:02.354Z,10.10
2018-04-18T04:37:29.793Z,10.10
2018-04-18T04:39:58.098Z,10.10
2018-04-18T04:42:25.567Z,10.10
2018-04-18T04:44:53.083Z,10.10
2018-04-18T04:47:20.470Z,10.10
2018-04-18T04:49:48.707Z,10.00
2018-04-18T04:52:16.181Z,10.00
2018-04-18T04:54:44.407Z,10.00
2018-04-18T04:57:11.871Z,10.00
2018-04-18T04:59:39.370Z,10.00
2018-04-18T05:02:06.835Z,10.00
2018-04-18T05:04:34.289Z,10.00
2018-04-18T05:07:01.754Z,9.90
2018-04-18T05:09:29.371Z,9.90
2018-04-18T05:11:56.821Z,9.90
2018-04-18T05:14:24.299Z,10.00
2018-04-18T05:16:52.548Z,10.20
2018-04-18T05:19:20.766Z,10.20
2018-04-18T05:21:48.233Z,10.20
2018-04-18T05:24:15.698Z,10.30
2018-04-18T05:26:43.191Z,10.40
2018-04-18T05:29:10.645Z,10.40
2018-04-18T05:31:38.162Z,10.40
2018-04-18T05:34:05.624Z,10.50
2018-04-18T05:36:33.086Z,10.60
2018-04-18T05:39:00.583Z,10.70
2018-04-18T05:41:28.108Z,10.90
2018-04-18T05:43:55.597Z,11.00
2018-04-18T05:46:23.837Z,11.30
2018-04-18T05:48:51.329Z,11.20
2018-04-18T05:51:19.185Z,11.40
2018-04-18T05:53:46.632Z,11.50
2018-04-18T05:56:14.086Z,11.70
2018-04-18T05:58:41.948Z,11.80
2018-04-18T06:01:09.406Z,12.00
2018-04-18T06:03:36.854Z,12.20
2018-04-18T06:06:04.369Z,12.40
2018-04-18T06:08:31.869Z,12.70
2018-04-18T06:10:59.332Z,12.90
2018-04-18T06:13:26.791Z,13.10
2018-04-18T06:15:54.243Z,13.40
2018-04-18T06:18:21.703Z,13.70
2018-04-18T06:20:49.149Z,14.00
2018-04-18T06:23:16.607Z,14.10
2018-04-18T06:25:44.061Z,14.40
2018-04-18T06:28:12.280Z,14.80
2018-04-18T06:30:40.368Z,14.80
2018-04-18T06:33:07.837Z,15.10
2018-04-18T06:35:36.111Z,15.70
2018-04-18T06:38:03.601Z,15.70
2018-04-18T06:40:31.128Z,15.80
2018-04-18T06:42:58.591Z,16.00
2018-04-18T06:45:26.882Z,16.10
2018-04-18T06:47:54.335Z,16.50
2018-04-18T06:50:22.582Z,16.70
2018-04-18T06:52:50.044Z,16.80
2018-04-18T06:55:17.514Z,16.90
2018-04-18T06:57:44.985Z,17.30
2018-04-18T07:00:12.413Z,17.60
2018-04-18T07:02:39.874Z,17.90
2018-04-18T07:05:07.359Z,18.20
2018-04-18T07:07:35.636Z,18.30
2018-04-18T07:10:03.100Z,18.30
2018-04-18T07:12:31.007Z,18.50
2018-04-18T07:14:59.220Z,19.00
2018-04-18T07:17:26.701Z,19.00
2018-04-18T07:19:54.131Z,19.40
2018-04-18T07:22:21.603Z,19.90
2018-04-18T07:24:49.898Z,20.30
2018-04-18T07:27:17.352Z,20.30
2018-04-18T07:29:44.803Z,20.30
2018-04-18T07:32:12.278Z,20.50
2018-04-18T07:34:40.503Z,21.30
2018-04-18T07:37:07.965Z,21.20
2018-04-18T07:39:35.421Z,21.40
2018-04-18T07:42:02.883Z,21.00
2018-04-18T07:44:30.359Z,20.90
2018-04-18T07:46:57.827Z,20.90
2018-04-18T07:49:25.282Z,20.80
2018-04-18T07:51:52.788Z,21.10
2018-04-18T07:54:20.262Z,21.30
2018-04-18T07:56:47.717Z,21.70
2018-04-18T07:59:15.206Z,21.80
2018-04-18T08:01:42.656Z,22.30
2018-04-18T08:04:10.118Z,22.20
2018-04-18T08:06:37.664Z,22.50
2018-04-18T08:09:05.137Z,22.90
2018-04-18T08:11:32.586Z,23.20
2018-04-18T08:14:00.052Z,23.30
2018-04-18T08:16:27.510Z,23.70
2018-04-18T08:18:54.960Z,23.60
2018-04-18T08:21:22.416Z,23.10
2018-04-18T08:23:49.858Z,23.10
2018-04-18T08:26:17.334Z,22.80
2018-04-18T08:28:44.774Z,22.20
2018-04-18T08:31:12.239Z,22.00
2018-04-18T08:33:39.706Z,21.80
2018-04-18T08:36:07.170Z,21.90
2018-04-18T08:38:34.621Z,21.90
2018-04-18T08:41:02.079Z,22.10
2018-04-18T08:43:30.326Z,22.20
2018-04-18T08:45:57.800Z,22.20
2018-04-18T08:48:25.246Z,22.10
2018-04-18T08:50:52.723Z,22.10
2018-04-18T08:53:20.175Z,22.10
2018-04-18T08:55:47.619Z,22.70
2018-04-18T08:58:15.078Z,23.20
2018-04-18T09:00:42.588Z,23.50
2018-04-18T09:03:10.822Z,23.70
2018-04-18T09:05:38.285Z,23.60
2018-04-18T09:08:05.742Z,23.80
2018-04-18T09:10:33.180Z,23.40
2018-04-18T09:13:00.637Z,23.50
2018-04-18T09:15:28.098Z,23.50
2018-04-18T09:17:55.555Z,23.50
2018-04-18T09:20:23.843Z,23.50
2018-04-18T09:22:51.298Z,23.40
2018-04-18T09:25:18.751Z,23.70
2018-04-18T09:27:46.231Z,23.60
2018-04-18T09:30:13.743Z,23.30
2018-04-18T09:32:41.225Z,23.20
2018-04-18T09:35:08.683Z,23.30
2018-04-18T09:37:36.142Z,23.50
2018-04-18T09:40:04.408Z,22.90
2018-04-18T09:42:31.878Z,22.90
2018-04-18T09:44:59.815Z,22.90
2018-04-18T09:47:28.024Z,22.80
2018-04-18T09:49:55.532Z,22.80
2018-04-18T09:52:23.753Z,22.40
2018-04-18T09:54:52.015Z,22.40
2018-04-18T09:57:19.467Z,22.40
2018-04-18T09:59:46.944Z,22.40
2018-04-18T10:02:18.396Z,22.50
2018-04-18T10:04:46.431Z,22.60
2018-04-18T10:07:14.643Z,22.50
2018-04-18T10:09:42.905Z,22.40
2018-04-18T10:12:10.379Z,22.80
2018-04-18T10:14:37.900Z,23.00
2018-04-18T10:17:05.391Z,22.50
2018-04-18T10:19:32.857Z,22.70
2018-04-18T10:22:00.310Z,22.30
2018-04-18T10:24:27.763Z,22.00
2018-04-18T10:26:55.268Z,22.10
2018-04-18T10:29:23.485Z,22.40
2018-04-18T10:31:50.989Z,22.40
2018-04-18T10:34:18.469Z,22.40
2018-04-18T10:36:45.942Z,22.40
2018-04-18T10:39:14.626Z,22.40
2018-04-18T10:41:42.818Z,22.60
2018-04-18T10:44:10.275Z,22.50
2018-04-18T10:46:38.499Z,22.10
2018-04-18T10:49:05.992Z,22.10
2018-04-18T10:51:33.445Z,21.80
2018-04-18T10:54:00.947Z,21.80
2018-04-18T10:56:29.437Z,21.70
2018-04-18T10:58:56.898Z,21.50
2018-04-18T11:01:24.355Z,21.40
2018-04-18T11:03:52.586Z,21.40
2018-04-18T11:06:20.047Z,21.40
2018-04-18T11:08:47.506Z,21.50
2018-04-18T11:11:15.718Z,21.60
2018-04-18T11:13:43.189Z,21.60
2018-04-18T11:16:10.628Z,21.50
2018-04-18T11:18:38.107Z,21.40
2018-04-18T11:21:06.315Z,21.40
2018-04-18T11:23:33.818Z,21.30
2018-04-18T11:26:03.032Z,21.40
2018-04-18T11:28:30.523Z,21.40
2018-04-18T11:30:57.951Z,21.30
2018-04-18T11:33:25.442Z,21.30
2018-04-18T11:35:52.888Z,21.20
2018-04-18T11:38:20.351Z,21.40
2018-04-18T11:40:47.810Z,21.40
2018-04-18T11:43:15.278Z,21.20
2018-04-18T11:45:42.728Z,21.40
2018-04-18T11:48:10.183Z,21.50
2018-04-18T11:50:38.399Z,21.40
2018-04-18T11:53:06.614Z,21.40
2018-04-18T11:55:34.071Z,21.30
2018-04-18T11:58:01.555Z,21.40
2018-04-18T12:00:29.001Z,21.40
2018-04-18T12:02:56.514Z,21.40
2018-04-18T12:05:24.039Z,21.50
2018-04-18T12:07:51.542Z,21.40
2018-04-18T12:10:19.035Z,21.40
2018-04-18T12:12:46.489Z,21.60
2018-04-18T12:15:13.952Z,21.70
2018-04-18T12:17:41.408Z,21.60
2018-04-18T12:20:08.865Z,21.60
2018-04-18T12:22:36.302Z,21.80
2018-04-18T12:25:03.742Z,21.80
2018-04-18T12:27:31.201Z,21.80
2018-04-18T12:29:59.661Z,21.80
2018-04-18T12:32:27.903Z,21.90
2018-04-18T12:34:55.953Z,21.80
2018-04-18T12:37:23.407Z,21.90
2018-04-18T12:39:50.858Z,22.00
2018-04-18T12:42:18.369Z,22.00
2018-04-18T12:44:45.829Z,22.00
2018-04-18T12:47:13.295Z,21.90
2018-04-18T12:49:41.509Z,22.00
2018-04-18T12:52:08.950Z,22.00
2018-04-18T12:54:36.422Z,21.90
2018-04-18T12:57:03.862Z,22.10
2018-04-18T12:59:31.336Z,22.20
2018-04-18T13:01:59.562Z,22.10
2018-04-18T13:04:27.044Z,22.00
2018-04-18T13:06:55.272Z,22.10
2018-04-18T13:09:22.763Z,22.10
2018-04-18T13:11:50.209Z,22.10
2018-04-18T13:14:17.662Z,22.10
2018-04-18T13:16:45.099Z,22.30
2018-04-18T13:19:12.609Z,22.30
2018-04-18T13:21:40.064Z,22.40
2018-04-18T13:24:08.266Z,22.40
2018-04-18T13:26:35.729Z,22.40
2018-04-18T13:29:03.182Z,22.40
2018-04-18T13:31:30.629Z,22.30
2018-04-18T13:33:58.088Z,22.40
2018-04-18T13:36:25.572Z,22.40
2018-04-18T13:38:53.102Z,22.30
2018-04-18T13:41:20.557Z,22.30
2018-04-18T13:43:48.019Z,22.40
2018-04-18T13:46:15.477Z,22.40
2018-04-18T13:48:42.947Z,22.50
2018-04-18T13:51:10.392Z,22.50
2018-04-18T13:53:37.853Z,22.50
2018-04-18T13:56:05.346Z,22.50
2018-04-18T13:58:32.783Z,22.40
2018-04-18T14:01:00.230Z,22.30
2018-04-18T14:03:27.676Z,22.40
2018-04-18T14:05:55.137Z,22.40
2018-04-18T14:08:23.456Z,22.30
2018-04-18T14:10:50.916Z,22.20
2018-04-18T14:13:18.447Z,22.30
2018-04-18T14:15:45.878Z,22.40
2018-04-18T14:18:13.378Z,22.40
2018-04-18T14:20:40.833Z,22.40
2018-04-18T14:23:09.051Z,22.40
2018-04-18T14:25:36.571Z,22.40
2018-04-18T14:28:04.038Z,22.40
2018-04-18T14:30:31.519Z,22.40
2018-04-18T14:32:59.054Z,22.40
2018-04-18T14:35:26.503Z,22.50
2018-04-18T14:37:54.733Z,22.40
2018-04-18T14:40:22.205Z,22.40
2018-04-18T14:42:50.455Z,22.50
2018-04-18T14:45:17.911Z,22.40
2018-04-18T14:47:46.133Z,22.50
2018-04-18T14:50:13.602Z,22.50
2018-04-18T14:52:41.059Z,22.60
2018-04-18T14:55:09.267Z,22.40
2018-04-18T14:57:36.755Z,22.30
2018-04-18T15:00:04.204Z,22.30
2018-04-18T15:02:32.414Z,22.40
2018-04-18T15:04:59.858Z,22.40
2018-04-18T15:07:27.323Z,22.40
2018-04-18T15:09:54.783Z,22.40
2018-04-18T15:12:22.284Z,22.40
2018-04-18T15:14:49.740Z,22.40
2018-04-18T15:17:17.199Z,22.40
2018-04-18T15:19:44.657Z,22.30
2018-04-18T15:22:12.375Z,22.20
2018-04-18T15:24:39.831Z,22.30
2018-04-18T15:27:07.291Z,22.30
2018-04-18T15:29:34.742Z,22.30
2018-04-18T15:32:02.988Z,22.20
2018-04-18T15:34:30.439Z,22.20
2018-04-18T15:36:57.883Z,22.10
2018-04-18T15:39:25.343Z,21.90
2018-04-18T15:41:53.584Z,22.10
2018-04-18T15:44:21.055Z,22.00
2018-04-18T15:46:48.984Z,22.10
2018-04-18T15:49:16.418Z,22.10
2018-04-18T15:51:43.867Z,22.10
2018-04-18T15:54:11.324Z,21.90
2018-04-18T15:56:38.767Z,22.00
2018-04-18T15:59:06.222Z,22.00
2018-04-18T16:01:33.667Z,22.00
2018-04-18T16:04:01.124Z,22.00
2018-04-18T16:06:28.590Z,21.90
2018-04-18T16:08:56.045Z,21.90
2018-04-18T16:11:23.511Z,21.80
2018-04-18T16:13:50.967Z,21.70
2018-04-18T16:16:19.177Z,21.70
2018-04-18T16:18:46.614Z,21.70
2018-04-18T16:21:14.069Z,21.70
2018-04-18T16:23:41.505Z,21.70
2018-04-18T16:26:09.646Z,21.70
2018-04-18T16:28:37.142Z,21.60
2018-04-18T16:31:04.610Z,21.60
2018-04-18T16:33:32.073Z,21.60
2018-04-18T16:35:59.545Z,21.60
2018-04-18T16:38:27.071Z,21.50
2018-04-18T16:40:54.999Z,21.50
2018-04-18T16:43:22.454Z,21.50
2018-04-18T16:45:49.975Z,21.40
2018-04-18T16:48:17.438Z,21.40
2018-04-18T16:50:45.013Z,21.40
2018-04-18T16:53:12.458Z,21.40
2018-04-18T16:55:39.945Z,21.40
2018-04-18T16:58:07.397Z,21.40
2018-04-18T17:00:34.858Z,21.30
2018-04-18T17:03:02.336Z,21.20
2018-04-18T17:05:29.781Z,21.20
2018-04-18T17:07:57.238Z,21.20
2018-04-18T17:10:24.702Z,21.10
2018-04-18T17:12:52.151Z,21.10
2018-04-18T17:15:20.386Z,21.10
2018-04-18T17:17:47.843Z,21.10
2018-04-18T17:20:15.300Z,21.10
2018-04-18T17:22:43.514Z,21.10
2018-04-18T17:25:11.089Z,21.00
2018-04-18T17:27:38.541Z,21.00
2018-04-18T17:30:05.998Z,21.00
2018-04-18T17:32:33.461Z,21.00
2018-04-18T17:35:00.915Z,20.90
2018-04-18T17:37:28.375Z,20.80
2018-04-18T17:39:55.847Z,20.80
2018-04-18T17:42:23.284Z,20.80
2018-04-18T17:44:50.770Z,20.70
2018-04-18T17:47:19.206Z,20.70
2018-04-18T17:49:47.443Z,20.60
2018-04-18T17:52:15.064Z,20.60
2018-04-18T17:54:42.571Z,20.50
2018-04-18T17:57:10.813Z,20.40
2018-04-18T17:59:39.092Z,20.30
2018-04-18T18:02:06.561Z,20.30
2018-04-18T18:04:34.052Z,20.30
2018-04-18T18:07:01.533Z,20.30
2018-04-18T18:09:28.987Z,20.20
2018-04-18T18:11:56.430Z,20.10
2018-04-18T18:14:23.902Z,20.10
2018-04-18T18:16:51.381Z,20.10
2018-04-18T18:19:18.870Z,20.10
2018-04-18T18:21:46.325Z,20.00
2018-04-18T18:24:13.783Z,20.00
2018-04-18T18:26:41.270Z,19.90
2018-04-18T18:29:10.474Z,19.90
2018-04-18T18:31:37.999Z,19.90
2018-04-18T18:34:05.412Z,19.80
2018-04-18T18:36:32.862Z,19.70
2018-04-18T18:39:00.318Z,19.70
2018-04-18T18:41:28.556Z,19.60
2018-04-18T18:43:56.927Z,19.60
2018-04-18T18:46:24.405Z,19.60
2018-04-18T18:48:51.854Z,19.50
2018-04-18T18:51:19.334Z,19.50
2018-04-18T18:53:46.779Z,19.50
2018-04-18T18:56:14.234Z,19.40
2018-04-18T18:58:41.708Z,19.40
2018-04-18T19:01:09.919Z,19.30
2018-04-18T19:03:37.384Z,19.20
2018-04-18T19:06:04.862Z,19.20
2018-04-18T19:08:33.066Z,19.10
2018-04-18T19:11:00.531Z,19.10
2018-04-18T19:13:28.019Z,19.00
2018-04-18T19:15:55.463Z,19.00
2018-04-18T19:18:22.895Z,18.90
2018-04-18T19:20:50.346Z,18.90
2018-04-18T19:23:17.811Z,18.90
2018-04-18T19:25:45.313Z,18.90
2018-04-18T19:28:12.769Z,18.80
2018-04-18T19:30:40.239Z,18.80
2018-04-18T19:33:07.736Z,18.70
2018-04-18T19:35:35.203Z,18.70
2018-04-18T19:38:02.666Z,18.70
2018-04-18T19:40:30.368Z,18.60
2018-04-18T19:42:57.852Z,18.60
2018-04-18T19:45:25.340Z,18.50
2018-04-18T19:47:52.798Z,18.50
2018-04-18T19:50:20.243Z,18.40
2018-04-18T19:52:48.459Z,18.30
2018-04-18T19:55:15.947Z,18.20
2018-04-18T19:57:43.435Z,18.20
2018-04-18T20:00:10.890Z,18.20
2018-04-18T20:02:38.346Z,18.30
2018-04-18T20:05:05.853Z,18.30
2018-04-18T20:07:33.264Z,18.20
2018-04-18T20:10:00.708Z,18.10
2018-04-18T20:12:28.936Z,18.00
2018-04-18T20:14:56.417Z,18.00
2018-04-18T20:17:24.647Z,17.90
2018-04-18T20:19:52.098Z,17.90
2018-04-18T20:22:19.563Z,17.90
2018-04-18T20:24:47.789Z,17.80
2018-04-18T20:27:15.281Z,17.80
2018-04-18T20:29:42.747Z,17.70
2018-04-18T20:32:10.221Z,17.70
2018-04-18T20:34:37.650Z,17.70
2018-04-18T20:37:05.110Z,17.70
2018-04-18T20:39:32.580Z,17.60
2018-04-18T20:42:00.811Z,17.60
2018-04-18T20:44:28.286Z,17.60
2018-04-18T20:46:56.505Z,17.60
2018-04-18T20:49:24.747Z,17.60
2018-04-18T20:51:52.210Z,17.60
2018-04-18T20:54:19.678Z,17.60
2018-04-18T20:56:47.154Z,17.50
2018-04-18T20:59:14.618Z,17.60
2018-04-18T21:01:42.076Z,17.50
2018-04-18T21:04:09.532Z,17.50
2018-04-18T21:06:37.018Z,17.40
2018-04-18T21:09:05.372Z,17.40
2018-04-18T21:11:33.669Z,17.40
2018-04-18T21:14:01.057Z,17.40
2018-04-18T21:16:28.580Z,17.40
2018-04-18T21:18:56.043Z,17.30
2018-04-18T21:21:23.528Z,17.30
2018-04-18T21:23:50.985Z,17.30
2018-04-18T21:26:18.442Z,17.20
2018-04-18T21:28:45.920Z,17.20
2018-04-18T21:31:13.418Z,17.20
2018-04-18T21:33:40.874Z,17.20
2018-04-18T21:36:08.331Z,17.30
2018-04-18T21:38:35.806Z,17.20
2018-04-18T21:41:04.047Z,17.20
2018-04-18T21:43:31.530Z,17.20
2018-04-18T21:45:58.980Z,17.20
2018-04-18T21:48:26.441Z,17.10
2018-04-18T21:50:54.316Z,17.10
2018-04-18T21:53:21.764Z,17.10
2018-04-18T21:55:49.268Z,17.00
2018-04-18T21:58:16.723Z,17.00
2018-04-18T22:00:44.211Z,16.90
2018-04-18T22:03:11.672Z,16.70
2018-04-18T22:05:39.889Z,16.80
2018-04-18T22:08:08.137Z,16.70
2018-04-18T22:10:35.596Z,16.70
2018-04-18T22:13:03.112Z,16.60
2018-04-18T22:15:30.543Z,16.60
2018-04-18T22:17:57.996Z,16.60
2018-04-18T22:20:25.438Z,16.60
2018-04-18T22:22:52.898Z,16.60
2018-04-18T22:25:20.352Z,16.50
2018-04-18T22:27:47.813Z,16.40
2018-04-18T22:30:15.281Z,16.30
2018-04-18T22:32:43.484Z,16.30
2018-04-18T22:35:10.935Z,16.30
2018-04-18T22:37:38.396Z,16.30
2018-04-18T22:40:05.861Z,16.30
2018-04-18T22:42:34.092Z,16.30
2018-04-18T22:45:01.540Z,16.30
2018-04-18T22:47:28.993Z,16.20
2018-04-18T22:49:56.514Z,16.20
2018-04-18T22:52:23.935Z,16.20
2018-04-18T22:54:51.391Z,16.20
2018-04-18T22:57:18.867Z,16.10
2018-04-18T22:59:46.319Z,16.10
2018-04-18T23:02:13.762Z,16.10
2018-04-18T23:04:41.968Z,16.00
2018-04-18T23:07:09.434Z,16.00
2018-04-18T23:09:36.917Z,16.00
2018-04-18T23:12:05.146Z,16.00
2018-04-18T23:14:32.596Z,16.00
2018-04-18T23:17:00.123Z,15.90
2018-04-18T23:19:27.581Z,15.90
2018-04-18T23:21:55.025Z,15.90
2018-04-18T23:24:22.482Z,15.90
2018-04-18T23:26:49.945Z,15.90
2018-04-18T23:29:17.411Z,15.90
2018-04-18T23:31:44.857Z,15.90
2018-04-18T23:34:12.342Z,15.80
2018-04-18T23:36:39.813Z,15.80
2018-04-18T23:39:08.037Z,15.80
2018-04-18T23:41:35.505Z,15.80
2018-04-18T23:44:03.731Z,15.80
2018-04-18T23:46:31.185Z,15.80
2018-04-18T23:48:58.658Z,15.80
2018-04-18T23:51:26.082Z,15.90
2018-04-18T23:53:53.539Z,15.90
2018-04-18T23:56:21.000Z,15.90
2018-04-18T23:58:48.461Z,15.90
